Time;durP1;ratioP1;P1;durP2;ratioP2;P2;SDS_P1;SDS_P2;PMS_P1;PMS_P2;Temp;Humidity;BMP_temperature;BMP_pressure;BME280_temperature;BME280_humidity;BME280_pressure;Samples;Min_cycle;Max_cycle;Signal;HPM_P1;HPM_P2
2021/04/03 00:00:50;;;;;;;17.77;14.60;;;6.00;99.90;;;;;;5087992;28;20453;-72
2021/04/03 00:03:19;;;;;;;15.03;13.63;;;6.00;99.90;;;;;;5085395;28;20489;-72
2021/04/03 00:05:46;;;;;;;16.13;14.07;;;5.90;99.90;;;;;;5086824;28;20853;-71
2021/04/03 00:08:13;;;;;;;15.33;12.43;;;5.70;99.90;;;;;;5088108;28;20455;-71
2021/04/03 00:10:44;;;;;;;17.20;13.17;;;5.60;99.90;;;;;;5088998;28;20485;-71
2021/04/03 00:13:11;;;;;;;18.47;13.87;;;5.60;99.90;;;;;;5092604;28;20460;-71
2021/04/03 00:15:37;;;;;;;18.73;14.17;;;5.40;99.90;;;;;;5087373;28;20458;-71
2021/04/03 00:18:04;;;;;;;15.07;13.57;;;5.40;99.90;;;;;;5081141;28;20543;-72
2021/04/03 00:20:33;;;;;;;19.13;13.43;;;5.50;99.90;;;;;;5084642;28;20531;-72
2021/04/03 00:22:59;;;;;;;19.67;13.40;;;5.60;99.90;;;;;;5087869;28;20459;-72
2021/04/03 00:25:26;;;;;;;17.17;12.90;;;5.60;99.90;;;;;;5092707;28;20492;-72
2021/04/03 00:27:52;;;;;;;20.50;13.93;;;5.60;99.90;;;;;;5082136;28;20996;-71
2021/04/03 00:30:19;;;;;;;16.07;12.50;;;5.70;99.90;;;;;;5086758;28;20856;-71
2021/04/03 00:32:48;;;;;;;12.07;11.17;;;5.70;99.90;;;;;;5084213;28;20478;-73
2021/04/03 00:35:17;;;;;;;13.43;12.03;;;5.70;99.90;;;;;;5078467;28;20451;-71
2021/04/03 00:37:44;;;;;;;14.93;12.10;;;5.80;99.90;;;;;;5087805;28;20989;-73
2021/04/03 00:40:14;;;;;;;15.00;12.10;;;5.80;99.90;;;;;;5087384;28;20465;-71
2021/04/03 00:42:42;;;;;;;14.37;12.90;;;5.70;99.90;;;;;;5088307;28;20470;-71
2021/04/03 00:45:10;;;;;;;16.93;14.10;;;5.80;99.90;;;;;;5082626;28;20896;-71
2021/04/03 00:47:36;;;;;;;23.57;13.90;;;5.80;99.90;;;;;;5087500;28;20490;-71
2021/04/03 00:50:03;;;;;;;16.57;13.33;;;5.70;99.90;;;;;;5085576;28;20835;-71
2021/04/03 00:52:30;;;;;;;16.90;13.60;;;5.80;99.90;;;;;;5098278;28;20449;-73
2021/04/03 00:54:57;;;;;;;23.60;14.50;;;5.80;99.90;;;;;;5089417;28;21031;-72
2021/04/03 00:57:24;;;;;;;16.07;13.43;;;5.80;99.90;;;;;;5086958;28;20470;-71
2021/04/03 00:59:51;;;;;;;15.00;13.77;;;5.80;99.90;;;;;;5093836;28;20846;-71
2021/04/03 01:02:17;;;;;;;27.53;15.20;;;5.70;99.90;;;;;;5076844;28;20450;-71
2021/04/03 01:04:44;;;;;;;14.77;13.47;;;5.70;99.90;;;;;;5086674;28;20489;-72
2021/04/03 01:07:10;;;;;;;20.10;14.37;;;5.80;99.90;;;;;;5081611;28;20462;-72
2021/04/03 01:09:37;;;;;;;16.43;14.27;;;5.70;99.90;;;;;;5087636;28;20885;-71
2021/04/03 01:12:16;;;;;;;23.73;14.60;;;5.80;99.90;;;;;;5083331;28;20989;-71
2021/04/03 01:14:59;;;;;;;14.63;13.23;;;5.70;99.90;;;;;;5096577;28;20463;-71
2021/04/03 01:17:32;;;;;;;29.47;16.67;;;5.70;99.90;;;;;;5084119;28;20519;-72
2021/04/03 01:20:31;;;;;;;16.30;13.80;;;5.80;99.90;;;;;;5096620;28;20741;-71
2021/04/03 01:23:27;;;;;;;17.03;13.50;;;5.80;99.90;;;;;;5079747;28;20458;-72
2021/04/03 01:26:13;;;;;;;18.03;14.60;;;5.80;99.90;;;;;;5096262;28;20841;-71
2021/04/03 01:28:55;;;;;;;19.60;14.43;;;5.80;99.90;;;;;;5094008;28;20457;-72
2021/04/03 01:31:23;;;;;;;15.47;13.13;;;5.70;99.90;;;;;;5083683;28;20484;-72
2021/04/03 01:33:54;;;;;;;14.10;12.63;;;5.70;99.90;;;;;;5100616;28;20982;-71
2021/04/03 01:36:24;;;;;;;21.13;13.90;;;5.60;99.90;;;;;;5087957;28;20461;-71
2021/04/03 01:38:54;;;;;;;19.97;17.73;;;5.60;99.90;;;;;;5094298;28;20495;-71
2021/04/03 01:41:23;;;;;;;20.90;19.10;;;5.40;99.90;;;;;;5090784;28;20460;-71
2021/04/03 01:43:52;;;;;;;26.37;20.67;;;5.20;99.90;;;;;;5091471;28;20493;-70
2021/04/03 01:46:23;;;;;;;20.97;18.67;;;5.00;99.90;;;;;;5087406;28;20462;-71
2021/04/03 01:48:51;;;;;;;23.50;19.73;;;4.90;99.90;;;;;;5091428;28;20464;-72
2021/04/03 01:51:19;;;;;;;22.20;20.03;;;4.90;99.90;;;;;;5094182;28;20989;-70
2021/04/03 01:53:46;;;;;;;22.37;20.27;;;4.80;99.90;;;;;;5085182;28;20476;-72
2021/04/03 01:56:16;;;;;;;20.10;18.60;;;4.90;99.90;;;;;;5086188;28;20968;-70
2021/04/03 01:58:45;;;;;;;20.17;18.30;;;4.90;99.90;;;;;;5095140;28;20473;-70
2021/04/03 02:01:12;;;;;;;21.27;19.10;;;4.90;99.90;;;;;;5097800;28;20467;-72
2021/04/03 02:03:39;;;;;;;24.27;20.20;;;4.90;99.90;;;;;;5093602;28;20484;-72
2021/04/03 02:06:06;;;;;;;21.37;19.37;;;4.90;99.90;;;;;;5094338;28;20467;-71
2021/04/03 02:08:34;;;;;;;22.03;20.13;;;4.80;99.90;;;;;;5083878;28;20485;-71
2021/04/03 02:11:04;;;;;;;21.13;19.00;;;4.90;99.90;;;;;;5089995;28;20465;-72
2021/04/03 02:13:33;;;;;;;20.43;18.50;;;4.80;99.90;;;;;;5092095;28;20813;-71
2021/04/03 02:16:00;;;;;;;19.23;17.43;;;4.80;99.90;;;;;;5092689;28;20814;-73
2021/04/03 02:18:29;;;;;;;19.23;16.33;;;4.90;99.90;;;;;;5086377;28;20538;-72
2021/04/03 02:20:58;;;;;;;18.70;16.90;;;4.80;99.90;;;;;;5093303;28;20462;-72
2021/04/03 02:23:27;;;;;;;31.17;16.80;;;4.80;99.90;;;;;;5086708;28;20489;-71
2021/04/03 02:25:55;;;;;;;18.60;13.70;;;4.90;99.90;;;;;;5096192;28;21093;-72
2021/04/03 02:28:23;;;;;;;20.73;14.00;;;4.90;99.90;;;;;;5091929;28;20465;-72
2021/04/03 02:30:50;;;;;;;15.63;14.20;;;4.90;99.90;;;;;;5088135;28;20462;-72
2021/04/03 02:33:16;;;;;;;22.50;14.70;;;4.90;99.90;;;;;;5094149;28;20469;-71
2021/04/03 02:35:43;;;;;;;15.63;14.00;;;5.00;99.90;;;;;;5091708;28;20462;-70
2021/04/03 02:38:10;;;;;;;19.80;13.10;;;5.00;99.90;;;;;;5091263;28;20489;-72
2021/04/03 02:40:37;;;;;;;14.87;13.03;;;5.00;99.90;;;;;;5087765;28;20461;-72
2021/04/03 02:43:07;;;;;;;17.10;13.67;;;5.00;99.90;;;;;;5091608;28;20461;-73
2021/04/03 02:45:37;;;;;;;18.60;14.00;;;5.00;99.90;;;;;;5086498;28;20575;-72
2021/04/03 02:48:09;;;;;;;18.27;12.83;;;5.00;99.90;;;;;;5092940;28;20461;-72
2021/04/03 02:50:40;;;;;;;14.40;12.23;;;5.00;99.90;;;;;;5083120;28;20462;-71
2021/04/03 02:53:11;;;;;;;18.50;13.67;;;5.00;99.90;;;;;;5096015;28;20970;-72
2021/04/03 02:55:41;;;;;;;20.60;12.90;;;5.00;99.90;;;;;;5087549;28;21007;-73
2021/04/03 02:58:10;;;;;;;12.33;11.33;;;5.10;99.90;;;;;;5092165;28;20484;-73
2021/04/03 03:00:37;;;;;;;16.73;12.93;;;5.10;99.90;;;;;;5089790;28;21057;-73
2021/04/03 03:03:06;;;;;;;15.57;13.70;;;5.10;99.90;;;;;;5079233;28;20452;-72
2021/04/03 03:05:33;;;;;;;24.83;12.60;;;5.10;99.90;;;;;;5083927;28;20490;-72
2021/04/03 03:08:03;;;;;;;22.43;12.90;;;5.20;99.90;;;;;;5087056;28;20459;-74
2021/04/03 03:10:32;;;;;;;19.70;13.07;;;5.20;99.90;;;;;;5087327;28;21117;-71
2021/04/03 03:12:59;;;;;;;12.40;11.17;;;5.10;99.90;;;;;;5098860;28;20510;-72
2021/04/03 03:15:31;;;;;;;14.57;12.33;;;5.10;99.90;;;;;;5083159;28;21038;-71
2021/04/03 03:18:01;;;;;;;16.30;12.57;;;5.10;99.90;;;;;;5082180;28;20466;-72
2021/04/03 03:20:28;;;;;;;13.50;12.20;;;5.20;99.90;;;;;;5092379;28;20804;-71
2021/04/03 03:22:55;;;;;;;17.80;12.50;;;5.10;99.90;;;;;;5084195;28;20473;-72
2021/04/03 03:25:22;;;;;;;12.27;11.17;;;5.10;99.90;;;;;;5091775;28;20860;-71
2021/04/03 03:27:51;;;;;;;20.97;12.40;;;5.10;99.90;;;;;;5096839;28;20461;-72
2021/04/03 03:30:20;;;;;;;14.10;12.03;;;5.10;99.90;;;;;;5085897;28;20980;-72
2021/04/03 03:32:47;;;;;;;12.60;11.50;;;5.10;99.90;;;;;;5084344;28;20490;-73
2021/04/03 03:35:15;;;;;;;16.80;12.30;;;5.10;99.90;;;;;;5092153;28;20500;-74
2021/04/03 03:37:43;;;;;;;16.90;11.70;;;5.00;99.90;;;;;;5094361;28;20462;-72
2021/04/03 03:40:12;;;;;;;15.03;12.57;;;5.00;99.90;;;;;;5090511;28;20458;-73
2021/04/03 03:42:39;;;;;;;14.43;11.70;;;5.10;99.90;;;;;;5090767;28;20462;-72
2021/04/03 03:45:09;;;;;;;20.23;12.77;;;5.10;99.90;;;;;;5081905;28;20484;-74
2021/04/03 03:47:35;;;;;;;18.53;13.60;;;5.10;99.90;;;;;;5094068;28;20469;-74
2021/04/03 03:50:01;;;;;;;17.07;12.57;;;5.10;99.90;;;;;;5085962;28;20517;-72
2021/04/03 03:52:28;;;;;;;15.80;13.67;;;5.10;99.90;;;;;;5089287;28;20466;-71
2021/04/03 03:54:54;;;;;;;19.20;12.60;;;5.10;99.90;;;;;;5097248;28;20469;-74
2021/04/03 03:57:21;;;;;;;17.43;12.40;;;5.10;99.90;;;;;;5079410;28;20514;-73
2021/04/03 03:59:47;;;;;;;13.40;12.00;;;5.10;99.90;;;;;;5090806;28;20466;-73
2021/04/03 04:02:14;;;;;;;21.73;13.80;;;5.20;99.90;;;;;;5079613;28;20499;-73
2021/04/03 04:04:41;;;;;;;14.73;13.03;;;5.10;99.90;;;;;;5091532;28;20491;-72
2021/04/03 04:07:07;;;;;;;25.03;11.67;;;5.20;99.90;;;;;;5093044;28;20499;-72
2021/04/03 04:09:34;;;;;;;18.77;11.93;;;5.30;99.90;;;;;;5081782;28;20458;-74
2021/04/03 04:12:03;;;;;;;16.83;13.13;;;5.30;99.90;;;;;;5080480;28;20830;-74
2021/04/03 04:14:32;;;;;;;16.97;12.83;;;5.20;99.90;;;;;;5085191;28;20457;-74
2021/04/03 04:16:59;;;;;;;27.87;13.40;;;5.20;99.90;;;;;;5079352;28;20459;-74
2021/04/03 04:19:26;;;;;;;13.10;12.03;;;5.30;99.90;;;;;;5094337;28;20468;-75
2021/04/03 04:21:53;;;;;;;20.10;13.67;;;5.20;99.90;;;;;;5093093;28;20467;-71
2021/04/03 04:24:19;;;;;;;22.03;13.97;;;5.20;99.90;;;;;;5083830;28;20491;-73
2021/04/03 04:26:47;;;;;;;26.00;13.40;;;5.20;99.90;;;;;;5083407;28;20487;-74
2021/04/03 04:29:14;;;;;;;20.77;13.97;;;5.20;99.90;;;;;;5090810;28;20460;-71
2021/04/03 04:31:40;;;;;;;14.93;12.20;;;5.20;99.90;;;;;;5088755;28;20488;-72
2021/04/03 04:34:06;;;;;;;16.90;13.83;;;5.20;99.90;;;;;;5084382;28;20775;-71
2021/04/03 04:36:35;;;;;;;15.50;14.00;;;5.20;99.90;;;;;;5090677;28;20731;-73
2021/04/03 04:39:01;;;;;;;16.63;12.57;;;5.20;99.90;;;;;;5082690;28;20466;-71
2021/04/03 04:41:28;;;;;;;17.43;13.33;;;5.20;99.90;;;;;;5083787;28;20457;-73
2021/04/03 04:43:55;;;;;;;14.23;12.30;;;5.20;99.90;;;;;;5092293;28;20521;-74
2021/04/03 04:46:21;;;;;;;14.23;11.77;;;5.20;99.90;;;;;;5082042;28;21009;-74
2021/04/03 04:48:48;;;;;;;22.57;13.20;;;5.20;99.90;;;;;;5091396;28;21051;-74
2021/04/03 04:51:15;;;;;;;16.27;11.53;;;5.20;99.90;;;;;;5097127;28;20457;-74
2021/04/03 04:53:42;;;;;;;14.70;11.50;;;5.20;99.90;;;;;;5075628;28;20473;-73
2021/04/03 04:56:09;;;;;;;15.63;12.17;;;5.20;99.90;;;;;;5091424;28;20835;-74
2021/04/03 04:58:35;;;;;;;13.23;12.03;;;5.20;99.90;;;;;;5091250;28;20469;-75
2021/04/03 05:01:02;;;;;;;17.60;12.93;;;5.30;99.90;;;;;;5091909;28;20930;-74
2021/04/03 05:03:30;;;;;;;22.43;12.80;;;5.30;99.90;;;;;;5082035;28;20497;-74
2021/04/03 05:05:57;;;;;;;17.60;12.37;;;5.20;99.90;;;;;;5094385;28;21048;-74
2021/04/03 05:08:23;;;;;;;14.83;12.47;;;5.20;99.90;;;;;;5091859;28;20471;-72
2021/04/03 05:10:50;;;;;;;18.50;12.50;;;5.20;99.90;;;;;;5090308;28;20457;-72
2021/04/03 05:13:17;;;;;;;20.93;13.07;;;5.20;99.90;;;;;;5101957;28;20500;-75
2021/04/03 05:15:44;;;;;;;14.17;12.17;;;5.20;99.90;;;;;;5076188;28;20553;-73
2021/04/03 05:18:10;;;;;;;18.83;12.00;;;5.20;99.90;;;;;;5096080;28;20456;-73
2021/04/03 05:20:36;;;;;;;20.07;12.10;;;5.30;99.90;;;;;;5086245;28;20458;-72
2021/04/03 05:23:03;;;;;;;14.43;12.33;;;5.40;99.90;;;;;;5089530;28;21392;-74
2021/04/03 05:25:29;;;;;;;14.40;12.23;;;5.30;99.90;;;;;;5091462;28;20799;-73
2021/04/03 05:27:56;;;;;;;19.67;13.17;;;5.30;99.90;;;;;;5090765;28;20453;-73
2021/04/03 05:30:24;;;;;;;22.83;13.20;;;5.40;99.90;;;;;;5082177;28;20484;-74
2021/04/03 05:32:51;;;;;;;19.30;15.03;;;5.50;99.90;;;;;;5094133;28;20497;-73
2021/04/03 05:35:17;;;;;;;16.27;14.63;;;5.50;99.90;;;;;;5084994;28;20950;-71
2021/04/03 05:37:45;;;;;;;29.57;17.07;;;5.40;99.90;;;;;;5088603;28;20449;-71
2021/04/03 05:40:13;;;;;;;29.97;17.10;;;5.40;99.90;;;;;;5093259;28;20524;-71
2021/04/03 05:42:43;;;;;;;20.60;17.50;;;5.50;99.90;;;;;;5095972;28;20454;-74
2021/04/03 05:45:16;;;;;;;19.73;17.73;;;5.50;99.90;;;;;;5096146;28;20477;-71
2021/04/03 05:47:43;;;;;;;22.83;17.67;;;5.50;99.90;;;;;;5085835;28;20462;-72
2021/04/03 05:50:11;;;;;;;24.77;17.60;;;5.40;99.90;;;;;;5096069;28;20824;-74
2021/04/03 05:52:38;;;;;;;25.33;18.90;;;5.40;99.90;;;;;;5099822;28;20465;-74
2021/04/03 05:55:06;;;;;;;25.57;19.30;;;5.30;99.90;;;;;;5087729;28;20457;-74
2021/04/03 05:57:35;;;;;;;19.33;17.37;;;5.30;99.90;;;;;;5083556;28;20568;-72
2021/04/03 06:00:01;;;;;;;25.23;17.80;;;5.30;99.90;;;;;;5091667;28;20461;-72
2021/04/03 06:02:34;;;;;;;19.90;16.97;;;5.30;99.90;;;;;;5089363;28;20454;-71
2021/04/03 06:05:00;;;;;;;21.30;18.27;;;5.30;99.90;;;;;;5098526;28;20501;-75
2021/04/03 06:07:28;;;;;;;20.67;17.77;;;5.50;99.90;;;;;;5092064;28;20462;-72
2021/04/03 06:09:55;;;;;;;24.53;18.30;;;5.60;99.90;;;;;;5089850;28;20461;-73
2021/04/03 06:12:40;;;;;;;21.13;18.17;;;5.60;99.90;;;;;;5084198;28;20524;-75
2021/04/03 06:15:08;;;;;;;25.73;18.90;;;5.50;99.90;;;;;;5086563;28;20497;-73
2021/04/03 06:17:35;;;;;;;24.60;17.03;;;5.50;99.90;;;;;;5084222;28;20462;-72
2021/04/03 06:20:01;;;;;;;22.63;15.70;;;5.50;99.90;;;;;;5088055;28;20462;-73
2021/04/03 06:22:41;;;;;;;27.67;16.03;;;5.70;99.90;;;;;;5077619;28;20761;-73
2021/04/03 06:25:08;;;;;;;18.60;14.63;;;5.80;99.90;;;;;;5089796;28;20996;-73
2021/04/03 06:27:35;;;;;;;20.70;14.23;;;6.00;99.90;;;;;;5093970;28;20473;-74
2021/04/03 06:30:13;;;;;;;26.03;14.63;;;6.00;99.90;;;;;;5083225;28;20450;-74
2021/04/03 06:32:42;;;;;;;25.00;14.30;;;6.00;99.90;;;;;;5085464;28;20483;-72
2021/04/03 06:35:10;;;;;;;28.07;14.80;;;5.90;99.90;;;;;;5081597;28;21195;-74
2021/04/03 06:37:38;;;;;;;24.63;15.77;;;5.80;99.90;;;;;;5077918;28;20464;-73
2021/04/03 06:40:06;;;;;;;22.10;14.23;;;5.60;99.90;;;;;;5093792;28;20827;-73
2021/04/03 06:42:46;;;;;;;22.77;14.10;;;5.70;99.90;;;;;;5085527;28;20874;-72
2021/04/03 06:45:24;;;;;;;16.63;13.23;;;5.70;99.90;;;;;;5084680;28;20501;-72
2021/04/03 06:47:53;;;;;;;17.43;13.13;;;5.70;99.90;;;;;;5083799;28;20507;-74
2021/04/03 06:50:21;;;;;;;29.17;14.20;;;5.70;99.90;;;;;;5087259;28;20474;-72
2021/04/03 06:52:47;;;;;;;26.47;15.43;;;5.70;99.90;;;;;;5090048;28;20955;-74
2021/04/03 06:55:16;;;;;;;24.57;14.83;;;5.80;99.90;;;;;;5083040;28;20515;-73
2021/04/03 06:57:44;;;;;;;19.90;13.70;;;5.90;99.90;;;;;;5095308;28;20472;-75
2021/04/03 07:00:12;;;;;;;20.03;16.13;;;6.00;99.90;;;;;;5082970;28;20476;-72
2021/04/03 07:02:48;;;;;;;33.30;15.37;;;6.10;99.90;;;;;;5082423;28;20469;-72
2021/04/03 07:05:16;;;;;;;23.03;15.00;;;6.20;99.90;;;;;;5082716;28;20589;-74
2021/04/03 07:07:44;;;;;;;30.57;15.30;;;6.20;99.90;;;;;;5081089;28;20470;-72
2021/04/03 07:10:14;;;;;;;18.10;14.60;;;6.20;99.90;;;;;;5083894;28;20474;-73
2021/04/03 07:12:42;;;;;;;23.70;14.60;;;6.20;99.90;;;;;;5089626;28;20458;-73
2021/04/03 07:15:11;;;;;;;27.93;13.80;;;6.30;99.90;;;;;;5082014;28;20998;-74
2021/04/03 07:17:40;;;;;;;26.83;14.23;;;6.40;99.90;;;;;;5088546;28;20458;-73
2021/04/03 07:20:09;;;;;;;24.73;14.80;;;6.40;99.90;;;;;;5093707;28;20471;-71
2021/04/03 07:22:38;;;;;;;20.10;14.10;;;6.40;99.90;;;;;;5087349;28;20820;-75
2021/04/03 07:25:08;;;;;;;19.20;13.50;;;6.40;99.90;;;;;;5087395;28;20478;-74
2021/04/03 07:27:37;;;;;;;31.33;14.93;;;6.50;99.90;;;;;;5090124;28;20455;-74
2021/04/03 07:30:05;;;;;;;22.47;14.53;;;6.50;99.90;;;;;;5083779;28;20465;-72
2021/04/03 07:32:33;;;;;;;43.53;15.87;;;6.70;99.90;;;;;;5096259;28;20495;-73
2021/04/03 07:35:00;;;;;;;27.03;15.37;;;6.80;99.90;;;;;;5088488;28;21008;-72
2021/04/03 07:37:34;;;;;;;22.00;13.20;;;6.90;99.90;;;;;;5093380;28;20975;-74
2021/04/03 07:40:03;;;;;;;26.37;13.93;;;7.10;99.90;;;;;;5082089;28;20508;-73
2021/04/03 07:42:34;;;;;;;23.13;16.23;;;7.20;99.90;;;;;;5085136;28;20454;-73
2021/04/03 07:45:01;;;;;;;20.73;14.73;;;7.30;99.90;;;;;;5086866;28;20501;-73
2021/04/03 07:47:28;;;;;;;17.00;13.60;;;7.40;99.90;;;;;;5076757;28;20469;-73
2021/04/03 07:49:55;;;;;;;23.10;14.10;;;7.40;99.90;;;;;;5081262;28;20474;-75
2021/04/03 07:52:53;;;;;;;20.80;15.37;;;7.50;99.90;;;;;;5078562;28;20469;-73
2021/04/03 07:55:36;;;;;;;28.97;17.47;;;7.60;99.90;;;;;;5082954;28;20461;-73
2021/04/03 07:58:24;;;;;;;21.47;15.10;;;7.60;99.90;;;;;;5086090;28;21051;-74
2021/04/03 08:00:51;;;;;;;29.53;14.80;;;7.50;99.90;;;;;;5082132;28;20449;-76
2021/04/03 08:03:21;;;;;;;22.20;16.40;;;7.60;99.90;;;;;;5084000;28;20487;-73
2021/04/03 08:05:49;;;;;;;23.60;15.20;;;7.90;99.90;;;;;;5087202;28;20491;-75
2021/04/03 08:08:19;;;;;;;26.93;15.80;;;8.60;99.90;;;;;;5081818;28;20469;-73
2021/04/03 08:10:47;;;;;;;16.00;14.30;;;8.80;99.90;;;;;;5081134;28;20488;-74
2021/04/03 08:13:17;;;;;;;23.43;16.07;;;8.90;99.90;;;;;;5081697;28;20495;-73
2021/04/03 08:15:47;;;;;;;22.43;17.17;;;8.80;99.90;;;;;;5081497;28;20460;-73
2021/04/03 08:18:14;;;;;;;27.13;16.40;;;8.50;99.90;;;;;;5086830;28;20461;-73
2021/04/03 08:20:50;;;;;;;23.87;15.50;;;8.60;99.90;;;;;;5084429;28;20840;-73
2021/04/03 08:23:29;;;;;;;20.47;16.73;;;8.70;99.90;;;;;;5086946;28;20517;-73
2021/04/03 08:25:56;;;;;;;19.67;14.90;;;9.10;99.90;;;;;;5084191;28;20503;-74
2021/04/03 08:28:23;;;;;;;15.73;14.13;;;9.20;99.90;;;;;;5089569;28;20833;-73
2021/04/03 08:30:49;;;;;;;22.20;15.00;;;9.20;99.90;;;;;;5094501;28;20823;-73
2021/04/03 08:33:17;;;;;;;16.80;15.10;;;8.80;99.90;;;;;;5091887;28;20467;-75
2021/04/03 08:35:45;;;;;;;32.10;15.37;;;8.80;99.90;;;;;;5088168;28;20461;-73
2021/04/03 08:38:17;;;;;;;20.53;15.60;;;8.90;99.90;;;;;;5087089;28;20467;-74
2021/04/03 08:40:45;;;;;;;21.67;15.83;;;9.10;99.90;;;;;;5083273;28;20461;-74
2021/04/03 08:43:23;;;;;;;24.80;17.37;;;9.10;99.90;;;;;;5087712;28;20458;-74
2021/04/03 08:45:50;;;;;;;21.37;14.83;;;9.10;99.90;;;;;;5091317;28;20499;-76
2021/04/03 08:48:16;;;;;;;17.90;16.13;;;9.00;99.90;;;;;;5096360;28;20974;-74
2021/04/03 08:50:44;;;;;;;26.10;17.33;;;8.80;99.90;;;;;;5091357;28;20468;-73
2021/04/03 08:53:11;;;;;;;19.50;15.63;;;9.20;99.90;;;;;;5085273;28;20550;-74
2021/04/03 08:55:38;;;;;;;21.30;14.93;;;9.20;99.90;;;;;;5090221;28;20464;-73
2021/04/03 08:58:06;;;;;;;20.33;15.47;;;8.70;99.90;;;;;;5083141;28;20825;-74
2021/04/03 09:00:35;;;;;;;21.37;16.50;;;8.70;99.90;;;;;;5087830;28;20898;-76
2021/04/03 09:03:02;;;;;;;18.87;15.37;;;8.60;99.90;;;;;;5099278;28;20473;-74
2021/04/03 09:05:29;;;;;;;15.70;14.00;;;8.70;99.90;;;;;;5084659;28;20481;-75
2021/04/03 09:07:56;;;;;;;29.37;15.50;;;8.80;99.90;;;;;;5086168;28;20511;-74
2021/04/03 09:10:25;;;;;;;28.13;15.67;;;9.00;99.90;;;;;;5081479;28;20467;-73
2021/04/03 09:12:52;;;;;;;15.93;14.40;;;9.10;99.90;;;;;;5088870;28;20466;-73
2021/04/03 09:15:27;;;;;;;16.43;14.63;;;9.10;99.90;;;;;;5088944;28;20493;-74
2021/04/03 09:17:55;;;;;;;16.23;14.70;;;9.20;99.90;;;;;;5089347;28;20459;-75
2021/04/03 09:20:23;;;;;;;14.83;13.60;;;9.60;99.90;;;;;;5083571;28;20449;-74
2021/04/03 09:22:52;;;;;;;26.63;15.67;;;10.20;99.90;;;;;;5084611;28;20469;-74
2021/04/03 09:25:20;;;;;;;20.13;14.23;;;10.40;99.90;;;;;;5082685;28;20490;-74
2021/04/03 09:28:00;;;;;;;15.13;13.83;;;10.30;99.90;;;;;;5078218;28;20462;-73
2021/04/03 09:30:37;;;;;;;15.50;14.00;;;10.30;99.90;;;;;;5093804;28;20450;-73
2021/04/03 09:33:19;;;;;;;17.47;15.70;;;10.80;99.90;;;;;;5089887;28;20915;-72
2021/04/03 09:35:46;;;;;;;16.63;15.00;;;11.10;99.90;;;;;;5084752;28;20454;-73
2021/04/03 09:38:13;;;;;;;24.33;15.23;;;10.90;99.90;;;;;;5087072;28;20462;-72
2021/04/03 09:40:42;;;;;;;15.80;14.53;;;11.30;99.90;;;;;;5082895;28;20479;-73
2021/04/03 09:43:09;;;;;;;15.10;14.00;;;11.20;99.90;;;;;;5087538;28;20555;-72
2021/04/03 09:45:37;;;;;;;26.73;15.30;;;11.40;99.90;;;;;;5095919;28;20496;-73
2021/04/03 09:48:04;;;;;;;24.00;16.60;;;11.40;99.90;;;;;;5091919;28;20461;-73
2021/04/03 09:50:33;;;;;;;23.17;16.20;;;11.70;99.90;;;;;;5092446;28;20462;-73
2021/04/03 09:53:06;;;;;;;17.23;15.43;;;12.20;99.90;;;;;;5081943;28;20465;-73
2021/04/03 09:55:33;;;;;;;17.60;15.80;;;12.50;99.90;;;;;;5093865;28;20457;-73
2021/04/03 09:58:00;;;;;;;16.13;13.90;;;13.10;99.90;;;;;;5088710;28;20466;-74
2021/04/03 10:00:26;;;;;;;18.13;15.80;;;12.80;99.90;;;;;;5089695;28;20462;-73
2021/04/03 10:02:54;;;;;;;20.50;16.33;;;12.70;99.90;;;;;;5082920;28;20980;-73
2021/04/03 10:05:21;;;;;;;18.87;16.50;;;13.20;99.90;;;;;;5093227;28;20828;-73
2021/04/03 10:07:48;;;;;;;20.63;16.97;;;13.60;99.90;;;;;;5082832;28;22099;-73
2021/04/03 10:10:15;;;;;;;20.10;16.67;;;13.50;99.90;;;;;;5072771;28;20470;-73
2021/04/03 10:12:41;;;;;;;17.97;16.10;;;13.60;99.90;;;;;;5084718;28;20918;-73
2021/04/03 10:15:09;;;;;;;32.37;17.23;;;13.70;99.90;;;;;;5087058;28;20513;-73
2021/04/03 10:17:35;;;;;;;19.07;16.90;;;13.70;99.90;;;;;;5081271;28;20906;-73
2021/04/03 10:20:03;;;;;;;19.73;17.20;;;14.20;99.90;;;;;;5074312;28;20458;-73
2021/04/03 10:22:29;;;;;;;18.63;16.87;;;13.90;99.90;;;;;;5078764;28;20454;-73
2021/04/03 10:24:56;;;;;;;22.63;16.73;;;13.70;99.90;;;;;;5082434;28;20494;-72
2021/04/03 10:27:22;;;;;;;17.30;15.60;;;12.40;99.90;;;;;;5082096;28;20486;-73
2021/04/03 10:29:49;;;;;;;22.10;17.23;;;12.10;99.90;;;;;;5087961;28;20458;-73
2021/04/03 10:32:16;;;;;;;22.20;16.53;;;12.00;99.90;;;;;;5076603;28;20481;-73
2021/04/03 10:34:43;;;;;;;18.70;16.90;;;11.90;99.90;;;;;;5078825;28;20466;-72
2021/04/03 10:37:09;;;;;;;18.57;16.90;;;11.80;99.90;;;;;;5075883;28;20470;-72
2021/04/03 10:39:36;;;;;;;24.07;16.37;;;11.90;99.90;;;;;;5085356;28;20454;-72
2021/04/03 10:42:05;;;;;;;26.67;17.87;;;11.80;99.90;;;;;;5086936;28;20470;-73
2021/04/03 10:44:31;;;;;;;18.93;17.13;;;13.20;99.90;;;;;;5086841;28;20513;-73
2021/04/03 10:46:57;;;;;;;18.83;17.30;;;13.60;99.90;;;;;;5080506;28;20520;-73
2021/04/03 10:49:24;;;;;;;23.60;17.20;;;14.30;99.90;;;;;;5081330;28;20461;-74
2021/04/03 10:51:51;;;;;;;18.77;16.97;;;14.80;99.90;;;;;;5083223;28;20466;-73
2021/04/03 10:54:20;;;;;;;20.07;16.60;;;14.70;99.90;;;;;;5081100;28;20558;-73
2021/04/03 10:56:47;;;;;;;19.03;17.23;;;15.30;99.90;;;;;;5083465;28;20636;-72
2021/04/03 10:59:14;;;;;;;19.63;17.50;;;15.60;99.90;;;;;;5084356;28;20937;-73
2021/04/03 11:01:41;;;;;;;20.87;17.17;;;15.40;99.90;;;;;;5084063;28;20462;-73
2021/04/03 11:04:07;;;;;;;18.93;17.00;;;15.70;99.90;;;;;;5086739;28;20966;-73
2021/04/03 11:06:34;;;;;;;18.37;16.80;;;14.60;99.90;;;;;;5093222;28;20454;-73
2021/04/03 11:09:01;;;;;;;20.63;17.67;;;13.90;99.90;;;;;;5090181;28;20466;-73
2021/04/03 11:11:28;;;;;;;30.10;17.27;;;13.70;99.90;;;;;;5098205;28;20477;-73
2021/04/03 11:13:54;;;;;;;18.80;16.87;;;13.90;99.90;;;;;;5080855;28;20545;-73
2021/04/03 11:16:21;;;;;;;23.73;17.33;;;14.60;99.90;;;;;;5082120;28;20461;-74
2021/04/03 11:18:48;;;;;;;20.90;16.50;;;16.10;99.90;;;;;;5090035;28;20553;-73
2021/04/03 11:21:14;;;;;;;23.47;15.70;;;15.90;99.30;;;;;;5079289;28;20832;-73
2021/04/03 11:23:41;;;;;;;24.60;17.10;;;13.80;99.90;;;;;;5093237;28;20471;-73
2021/04/03 11:26:07;;;;;;;26.70;16.27;;;13.00;99.90;;;;;;5091234;28;20501;-73
2021/04/03 11:28:34;;;;;;;19.03;16.80;;;13.50;99.90;;;;;;5081574;28;20968;-73
2021/04/03 11:31:01;;;;;;;25.53;17.27;;;14.30;99.90;;;;;;5087841;28;20498;-73
2021/04/03 11:33:29;;;;;;;18.00;16.00;;;14.40;99.90;;;;;;5080617;28;20849;-73
2021/04/03 11:35:55;;;;;;;18.10;16.30;;;14.30;99.90;;;;;;5083982;28;20447;-73
2021/04/03 11:38:22;;;;;;;19.03;16.30;;;14.40;99.90;;;;;;5099269;28;20545;-73
2021/04/03 11:40:48;;;;;;;25.67;15.80;;;15.10;99.90;;;;;;5085691;28;20468;-73
2021/04/03 11:43:14;;;;;;;18.03;16.50;;;15.40;99.90;;;;;;5091261;28;20462;-73
2021/04/03 11:45:41;;;;;;;18.10;16.53;;;16.00;99.20;;;;;;5078538;28;20487;-73
2021/04/03 11:48:08;;;;;;;21.83;15.00;;;16.70;99.10;;;;;;5082323;28;20469;-74
2021/04/03 11:50:35;;;;;;;18.53;16.70;;;17.00;98.00;;;;;;5085449;28;20491;-74
2021/04/03 11:53:02;;;;;;;19.30;16.97;;;16.40;98.90;;;;;;5088700;28;20457;-74
2021/04/03 11:55:29;;;;;;;21.10;16.23;;;16.90;98.40;;;;;;5075178;28;20467;-74
2021/04/03 11:57:55;;;;;;;17.23;15.50;;;16.90;97.80;;;;;;5084290;28;20462;-75
2021/04/03 12:00:23;;;;;;;21.07;17.67;;;15.50;99.00;;;;;;5082432;28;20462;-74
2021/04/03 12:02:49;;;;;;;29.80;16.30;;;13.90;99.90;;;;;;5082923;28;20522;-74
2021/04/03 12:05:18;;;;;;;21.30;17.03;;;13.90;99.90;;;;;;5082263;28;20489;-74
2021/04/03 12:07:45;;;;;;;17.60;15.60;;;14.40;99.90;;;;;;5083047;28;20461;-75
2021/04/03 12:10:14;;;;;;;16.77;14.77;;;14.10;99.90;;;;;;5081249;28;20454;-75
2021/04/03 12:12:41;;;;;;;18.07;15.63;;;15.20;99.90;;;;;;5084970;28;20489;-75
2021/04/03 12:15:09;;;;;;;15.17;14.00;;;16.30;97.80;;;;;;5093637;28;20477;-74
2021/04/03 12:17:36;;;;;;;18.43;16.13;;;16.60;98.10;;;;;;5084364;28;20464;-75
2021/04/03 12:20:05;;;;;;;17.73;16.13;;;16.50;98.20;;;;;;5092746;28;20476;-75
2021/04/03 12:22:31;;;;;;;18.67;16.87;;;15.50;98.10;;;;;;5081419;28;20490;-76
2021/04/03 12:24:58;;;;;;;17.73;15.87;;;14.60;98.20;;;;;;5088701;28;20818;-76
2021/04/03 12:27:25;;;;;;;16.83;15.27;;;14.20;99.10;;;;;;5083747;28;20481;-75
2021/04/03 12:29:52;;;;;;;20.43;15.40;;;14.90;99.40;;;;;;5081123;28;20481;-76
2021/04/03 12:32:18;;;;;;;20.83;16.20;;;14.90;99.70;;;;;;5080006;28;20491;-75
2021/04/03 12:34:45;;;;;;;16.97;15.30;;;16.00;98.50;;;;;;5087040;28;20522;-75
2021/04/03 12:37:15;;;;;;;14.40;13.30;;;16.00;97.50;;;;;;5082484;28;20942;-75
2021/04/03 12:39:41;;;;;;;17.07;15.57;;;15.00;98.00;;;;;;5077533;28;20462;-76